Time;durP1;ratioP1;P1;durP2;ratioP2;P2;SDS_P1;SDS_P2;PMS_P1;PMS_P2;Temp;Humidity;BMP_temperature;BMP_pressure;BME280_temperature;BME280_humidity;BME280_pressure;Samples;Min_cycle;Max_cycle;Signal;HPM_P1;HPM_P2
2022/07/18 00:00:07;;;;;;;0.10;0.10;;;18.80;72.10;;;;;;5015104;28;20022;-72
2022/07/18 00:02:32;;;;;;;0.47;0.20;;;18.70;72.90;;;;;;5013956;28;20477;-72
2022/07/18 00:04:58;;;;;;;0.20;0.20;;;18.70;72.80;;;;;;5013715;28;20041;-72
2022/07/18 00:07:24;;;;;;;0.10;0.10;;;18.40;73.60;;;;;;5013774;28;20040;-72
2022/07/18 00:09:49;;;;;;;0.10;0.10;;;18.40;73.70;;;;;;5013722;28;20473;-73
2022/07/18 00:12:15;;;;;;;0.10;0.10;;;18.50;73.90;;;;;;5015087;28;20026;-72
2022/07/18 00:14:41;;;;;;;0.10;0.10;;;18.80;72.50;;;;;;5013752;28;20099;-72
2022/07/18 00:17:08;;;;;;;0.10;0.10;;;18.80;72.20;;;;;;5013599;28;20670;-72
2022/07/18 00:19:34;;;;;;;0.30;0.30;;;19.00;71.80;;;;;;5013558;28;20555;-73
2022/07/18 00:22:00;;;;;;;0.10;0.10;;;18.90;71.70;;;;;;5014822;28;20092;-72
2022/07/18 00:24:26;;;;;;;1.27;0.65;;;18.80;72.10;;;;;;5013633;28;20022;-72
2022/07/18 00:26:52;;;;;;;0.28;0.28;;;18.50;72.70;;;;;;5014864;28;20041;-73
2022/07/18 00:29:18;;;;;;;0.10;0.10;;;18.30;73.50;;;;;;5013228;28;20029;-73
2022/07/18 00:31:44;;;;;;;2.17;0.52;;;18.20;74.10;;;;;;5013423;28;20077;-73
2022/07/18 00:34:10;;;;;;;0.10;0.10;;;18.00;74.10;;;;;;5014823;28;20108;-73
2022/07/18 00:36:35;;;;;;;0.47;0.47;;;17.90;75.30;;;;;;5014497;28;20037;-75
2022/07/18 00:39:01;;;;;;;0.22;0.22;;;17.90;74.50;;;;;;5014267;28;20022;-72
2022/07/18 00:41:27;;;;;;;9.00;1.30;;;17.80;74.80;;;;;;5014537;28;20597;-74
2022/07/18 00:43:53;;;;;;;0.10;0.10;;;17.70;75.20;;;;;;5014437;28;20033;-74
2022/07/18 00:46:23;;;;;;;0.30;0.30;;;17.80;75.20;;;;;;5014406;28;20034;-73
2022/07/18 00:48:49;;;;;;;0.20;0.20;;;17.60;75.60;;;;;;5014200;28;20036;-73
2022/07/18 00:51:16;;;;;;;0.20;0.20;;;17.60;75.30;;;;;;5012903;28;20032;-73
2022/07/18 00:53:43;;;;;;;0.30;0.30;;;17.80;75.00;;;;;;5013009;28;20021;-72
2022/07/18 00:56:09;;;;;;;0.10;0.10;;;17.60;75.20;;;;;;5014114;28;20402;-73
2022/07/18 00:58:36;;;;;;;0.20;0.20;;;17.50;75.50;;;;;;5014218;28;20027;-73
2022/07/18 01:03:46;;;;;;;0.35;0.30;;;17.30;76.20;;;;;;5013967;28;20032;-73
2022/07/18 01:06:12;;;;;;;0.10;0.10;;;17.30;76.30;;;;;;5014107;28;20026;-73
2022/07/18 01:08:41;;;;;;;0.73;0.73;;;17.30;76.10;;;;;;5012620;28;20125;-73
2022/07/18 01:11:07;;;;;;;0.40;0.40;;;17.40;75.90;;;;;;5014070;28;20109;-73
2022/07/18 01:13:33;;;;;;;0.20;0.20;;;17.50;75.50;;;;;;5012634;28;20063;-73
2022/07/18 01:15:59;;;;;;;0.10;0.10;;;17.60;74.90;;;;;;5013737;28;20316;-72
2022/07/18 01:18:25;;;;;;;0.08;0.08;;;17.70;74.70;;;;;;5012650;28;20041;-72
2022/07/18 01:20:51;;;;;;;0.15;0.15;;;17.70;74.80;;;;;;5012166;28;20032;-72
2022/07/18 01:23:17;;;;;;;0.10;0.10;;;17.80;74.50;;;;;;5013721;28;20079;-72
2022/07/18 01:25:43;;;;;;;0.10;0.10;;;17.80;74.00;;;;;;5012369;28;20419;-73
2022/07/18 01:28:09;;;;;;;0.10;0.10;;;17.90;73.70;;;;;;5013579;28;20145;-72
2022/07/18 01:30:35;;;;;;;0.00;0.00;;;17.80;74.20;;;;;;5012126;28;20061;-72
2022/07/18 01:33:02;;;;;;;0.10;0.10;;;17.80;75.00;;;;;;5012294;28;20037;-73
2022/07/18 01:35:29;;;;;;;0.20;0.20;;;17.70;74.70;;;;;;5011986;28;20084;-73
2022/07/18 01:37:57;;;;;;;0.10;0.10;;;17.80;74.40;;;;;;5013389;28;20091;-72
2022/07/18 01:40:24;;;;;;;0.10;0.10;;;17.60;75.20;;;;;;5011821;28;20482;-73
2022/07/18 01:42:50;;;;;;;0.20;0.20;;;17.50;75.90;;;;;;5013395;28;20540;-72
2022/07/18 01:45:16;;;;;;;0.20;0.20;;;17.30;76.20;;;;;;5013355;28;20030;-72
2022/07/18 01:47:42;;;;;;;0.10;0.10;;;17.40;76.10;;;;;;5028420;28;20496;-72
2022/07/18 01:50:10;;;;;;;0.10;0.10;;;17.40;75.90;;;;;;5011727;28;20030;-73
2022/07/18 01:52:36;;;;;;;0.13;0.13;;;17.50;75.30;;;;;;5011956;28;20053;-73
2022/07/18 01:55:03;;;;;;;0.28;0.28;;;17.60;75.10;;;;;;5013272;28;20026;-74
2022/07/18 01:57:28;;;;;;;0.20;0.20;;;17.60;75.10;;;;;;5013301;28;20044;-73
2022/07/18 01:59:54;;;;;;;0.10;0.10;;;17.60;74.60;;;;;;5011911;28;20050;-74
2022/07/18 02:02:20;;;;;;;0.10;0.10;;;17.50;74.80;;;;;;5013323;28;20030;-73
2022/07/18 02:05:00;;;;;;;0.43;0.43;;;17.50;74.70;;;;;;5011602;28;20328;-73
2022/07/18 02:07:35;;;;;;;0.25;0.25;;;17.40;75.10;;;;;;4995327;28;20031;-73
2022/07/18 02:10:06;;;;;;;0.10;0.10;;;17.40;75.50;;;;;;5012691;28;20061;-73
2022/07/18 02:12:32;;;;;;;0.10;0.10;;;17.50;75.20;;;;;;5027259;28;20026;-74
2022/07/18 02:14:57;;;;;;;0.20;0.20;;;17.50;75.00;;;;;;5012807;28;20088;-73
2022/07/18 02:17:23;;;;;;;0.10;0.10;;;17.30;75.50;;;;;;5012772;28;20029;-73
2022/07/18 02:19:49;;;;;;;0.10;0.10;;;17.30;75.80;;;;;;5011520;28;20022;-73
2022/07/18 02:22:14;;;;;;;0.50;0.40;;;17.20;76.00;;;;;;4994969;28;20076;-73
2022/07/18 02:24:40;;;;;;;0.93;0.70;;;17.00;76.50;;;;;;5011317;28;20084;-73
2022/07/18 02:27:07;;;;;;;0.40;0.40;;;17.00;76.10;;;;;;5011482;28;20057;-73
2022/07/18 02:29:33;;;;;;;1.20;0.35;;;16.90;76.50;;;;;;5012511;28;20022;-73
2022/07/18 02:31:58;;;;;;;0.10;0.10;;;16.90;76.70;;;;;;5011389;28;20496;-73
2022/07/18 02:34:24;;;;;;;0.10;0.10;;;17.00;76.70;;;;;;5012471;28;20029;-73
2022/07/18 02:36:50;;;;;;;0.40;0.40;;;17.00;76.20;;;;;;5011402;28;20018;-74
2022/07/18 02:39:17;;;;;;;0.10;0.10;;;17.10;75.70;;;;;;5012132;28;20022;-73
2022/07/18 02:41:43;;;;;;;0.13;0.13;;;17.20;75.70;;;;;;5012399;28;20018;-73
2022/07/18 02:44:09;;;;;;;0.10;0.10;;;17.10;76.30;;;;;;5012554;28;20018;-74
2022/07/18 02:46:36;;;;;;;0.10;0.10;;;17.00;76.70;;;;;;5011144;28;20051;-73
2022/07/18 02:49:02;;;;;;;0.10;0.10;;;16.90;76.90;;;;;;5010781;28;20100;-74
2022/07/18 02:51:28;;;;;;;0.10;0.10;;;16.80;77.90;;;;;;5012292;28;20034;-74
2022/07/18 02:53:54;;;;;;;0.10;0.10;;;16.90;77.40;;;;;;5012290;28;20500;-73
2022/07/18 02:56:20;;;;;;;0.17;0.17;;;17.00;77.10;;;;;;5012179;28;20109;-73
2022/07/18 02:58:46;;;;;;;0.15;0.15;;;17.00;76.80;;;;;;5010888;28;20109;-73
2022/07/18 03:01:12;;;;;;;0.20;0.20;;;17.00;76.70;;;;;;5011996;28;20053;-73
2022/07/18 03:03:37;;;;;;;0.30;0.30;;;16.90;76.80;;;;;;5011895;28;20456;-73
2022/07/18 03:06:04;;;;;;;0.30;0.30;;;16.70;76.80;;;;;;5012112;28;20038;-73
2022/07/18 03:08:29;;;;;;;0.10;0.10;;;16.50;77.70;;;;;;5010968;28;20053;-74
2022/07/18 03:10:55;;;;;;;0.10;0.10;;;16.60;77.90;;;;;;5011934;28;20463;-74
2022/07/18 03:13:21;;;;;;;0.17;0.17;;;16.70;77.80;;;;;;5012204;28;20112;-73
2022/07/18 03:15:46;;;;;;;0.32;0.32;;;16.90;77.00;;;;;;5012028;28;20069;-73
2022/07/18 03:18:12;;;;;;;0.10;0.10;;;16.80;77.00;;;;;;4994286;28;20022;-73
2022/07/18 03:20:38;;;;;;;0.65;0.65;;;16.60;77.40;;;;;;5010570;28;20026;-73
2022/07/18 03:23:05;;;;;;;0.20;0.20;;;16.70;77.40;;;;;;5012105;28;20474;-73
2022/07/18 03:25:31;;;;;;;0.30;0.30;;;16.80;77.20;;;;;;4998333;28;20553;-73
2022/07/18 03:27:57;;;;;;;0.70;0.50;;;17.00;76.10;;;;;;5014510;28;20516;-73
2022/07/18 03:30:23;;;;;;;0.30;0.30;;;16.90;76.10;;;;;;5015741;28;20021;-73
2022/07/18 03:32:49;;;;;;;0.30;0.30;;;16.70;76.40;;;;;;5015687;28;20030;-73
2022/07/18 03:35:15;;;;;;;0.20;0.20;;;16.60;76.80;;;;;;5014368;28;20053;-73
2022/07/18 03:37:41;;;;;;;0.20;0.20;;;16.50;76.90;;;;;;5014413;28;20022;-73
2022/07/18 03:40:07;;;;;;;0.38;0.38;;;16.50;77.10;;;;;;4997730;28;20064;-73
2022/07/18 03:42:34;;;;;;;0.30;0.30;;;16.50;77.40;;;;;;5030768;28;20168;-73
2022/07/18 03:45:00;;;;;;;0.45;0.45;;;16.60;77.10;;;;;;5014237;28;20033;-73
2022/07/18 03:47:26;;;;;;;0.10;0.10;;;16.70;76.60;;;;;;5015478;28;20034;-72
2022/07/18 03:49:51;;;;;;;0.20;0.20;;;16.80;75.90;;;;;;5013965;28;20033;-72
2022/07/18 03:52:17;;;;;;;0.22;0.22;;;17.00;76.40;;;;;;5015394;28;20486;-72
2022/07/18 03:54:43;;;;;;;0.10;0.10;;;17.10;75.40;;;;;;5015322;28;20552;-72
2022/07/18 03:57:08;;;;;;;0.10;0.10;;;17.20;75.20;;;;;;5015324;28;20088;-73
2022/07/18 03:59:35;;;;;;;0.55;0.55;;;17.10;75.00;;;;;;5015240;28;20022;-74
2022/07/18 04:02:01;;;;;;;0.10;0.10;;;17.00;74.90;;;;;;5015283;28;20067;-73
2022/07/18 04:04:27;;;;;;;0.63;0.63;;;17.00;75.30;;;;;;5043809;22;20041;-72
2022/07/18 04:06:53;;;;;;;0.40;0.40;;;16.90;75.70;;;;;;5036664;28;20060;-72
2022/07/18 04:09:19;;;;;;;0.30;0.30;;;17.00;75.90;;;;;;5036255;28;20033;-71
2022/07/18 04:11:45;;;;;;;0.22;0.22;;;17.00;76.10;;;;;;5036039;28;20018;-72
2022/07/18 04:14:11;;;;;;;0.10;0.10;;;17.00;76.10;;;;;;5037340;28;20036;-72
2022/07/18 04:16:36;;;;;;;0.10;0.10;;;17.10;75.90;;;;;;5037894;28;20068;-72
2022/07/18 04:19:02;;;;;;;0.30;0.30;;;17.10;75.90;;;;;;5037017;28;20079;-72
2022/07/18 04:21:28;;;;;;;0.10;0.10;;;17.20;75.40;;;;;;5037542;28;20032;-73
2022/07/18 04:23:54;;;;;;;0.10;0.10;;;17.20;76.90;;;;;;5036580;28;20388;-72
2022/07/18 04:26:19;;;;;;;0.10;0.10;;;17.20;76.50;;;;;;5037910;28;20034;-73
2022/07/18 04:28:45;;;;;;;0.32;0.32;;;17.20;75.90;;;;;;5037292;28;20397;-73
2022/07/18 04:31:11;;;;;;;0.13;0.13;;;17.20;75.70;;;;;;5037422;28;20017;-72
2022/07/18 04:33:37;;;;;;;0.10;0.10;;;17.20;76.40;;;;;;5035619;28;20035;-72
2022/07/18 04:36:02;;;;;;;0.10;0.10;;;17.30;76.00;;;;;;5034546;28;20021;-72
2022/07/18 04:38:33;;;;;;;0.10;0.10;;;17.40;75.80;;;;;;5035585;28;20388;-72
2022/07/18 04:40:59;;;;;;;0.10;0.10;;;17.40;75.90;;;;;;5035127;28;20045;-72
2022/07/18 04:43:25;;;;;;;0.10;0.10;;;17.40;77.00;;;;;;5035348;28;20033;-72
2022/07/18 04:45:51;;;;;;;0.52;0.52;;;17.40;77.50;;;;;;5036445;28;20029;-72
2022/07/18 04:48:16;;;;;;;0.20;0.20;;;17.30;78.40;;;;;;5035041;28;20057;-73
2022/07/18 04:50:42;;;;;;;0.10;0.10;;;17.40;78.30;;;;;;5018729;28;20021;-72
2022/07/18 04:53:08;;;;;;;2.00;0.65;;;17.60;78.20;;;;;;5018436;28;20025;-72
2022/07/18 04:55:34;;;;;;;0.10;0.10;;;17.60;78.20;;;;;;5035958;28;20029;-73
2022/07/18 04:57:59;;;;;;;0.10;0.10;;;17.70;77.70;;;;;;5034946;28;20489;-72
2022/07/18 05:00:26;;;;;;;0.10;0.10;;;17.90;77.10;;;;;;5034859;28;20025;-72
2022/07/18 05:02:54;;;;;;;0.10;0.10;;;17.90;76.50;;;;;;5034994;28;20041;-73
2022/07/18 05:05:21;;;;;;;0.08;0.08;;;18.00;75.20;;;;;;5034972;28;20033;-71
2022/07/18 05:07:48;;;;;;;0.20;0.20;;;18.20;74.70;;;;;;5035881;28;20358;-71
2022/07/18 05:10:15;;;;;;;0.10;0.10;;;18.30;74.80;;;;;;5036024;28;20072;-73
2022/07/18 05:12:45;;;;;;;0.00;0.00;;;18.50;73.90;;;;;;5034491;28;20028;-72
2022/07/18 05:15:13;;;;;;;0.10;0.10;;;18.50;74.30;;;;;;5035235;28;20481;-72
2022/07/18 05:17:39;;;;;;;0.10;0.10;;;18.60;74.10;;;;;;5035583;28;20025;-72
2022/07/18 05:20:08;;;;;;;0.10;0.10;;;18.60;74.00;;;;;;5035146;28;20022;-73
2022/07/18 05:22:35;;;;;;;0.15;0.15;;;18.60;74.80;;;;;;5034637;28;20021;-73
2022/07/18 05:25:01;;;;;;;1.00;0.25;;;18.70;74.50;;;;;;5036029;28;20032;-73
2022/07/18 05:27:27;;;;;;;0.30;0.30;;;18.70;75.20;;;;;;5035115;28;20102;-73
2022/07/18 05:29:53;;;;;;;0.10;0.10;;;18.80;75.40;;;;;;5034153;28;20453;-73
2022/07/18 05:32:19;;;;;;;0.10;0.10;;;18.90;75.30;;;;;;5035143;28;20030;-73
2022/07/18 05:34:44;;;;;;;0.00;0.00;;;19.10;74.80;;;;;;5017168;28;20396;-73
2022/07/18 05:37:10;;;;;;;0.08;0.08;;;19.20;75.60;;;;;;5017587;28;20026;-72
2022/07/18 05:39:36;;;;;;;0.10;0.10;;;19.20;75.20;;;;;;5033714;28;20045;-72
2022/07/18 05:42:03;;;;;;;0.20;0.20;;;19.40;74.90;;;;;;5033933;28;20053;-72
2022/07/18 05:44:29;;;;;;;0.15;0.15;;;19.40;75.40;;;;;;5042698;28;20026;-72
2022/07/18 05:46:55;;;;;;;0.20;0.20;;;19.30;76.90;;;;;;5043795;28;20017;-73
2022/07/18 05:49:21;;;;;;;0.10;0.10;;;19.40;76.60;;;;;;5054530;28;20044;-73
2022/07/18 05:51:46;;;;;;;0.10;0.10;;;19.70;76.20;;;;;;5040789;28;20024;-73
2022/07/18 05:54:15;;;;;;;0.10;0.10;;;19.70;76.00;;;;;;5033731;28;20389;-72
2022/07/18 05:56:41;;;;;;;0.95;0.73;;;19.70;76.60;;;;;;5033634;28;20480;-73
2022/07/18 05:59:07;;;;;;;0.10;0.10;;;19.80;75.30;;;;;;5034673;28;20022;-73
2022/07/18 06:01:32;;;;;;;0.10;0.10;;;19.80;75.10;;;;;;5034489;28;20024;-73
2022/07/18 06:03:58;;;;;;;0.10;0.10;;;20.00;75.70;;;;;;5034882;28;20026;-72
2022/07/18 06:06:24;;;;;;;0.10;0.10;;;20.10;76.60;;;;;;5034544;28;20493;-73
2022/07/18 06:08:50;;;;;;;0.20;0.20;;;20.00;77.50;;;;;;5016492;28;20037;-72
2022/07/18 06:11:16;;;;;;;0.10;0.10;;;20.20;77.20;;;;;;5033778;28;20025;-72
2022/07/18 06:13:42;;;;;;;1.13;1.13;;;20.40;76.20;;;;;;5017265;28;20035;-73
2022/07/18 06:16:08;;;;;;;0.65;0.45;;;20.60;75.10;;;;;;5034404;28;20021;-73
2022/07/18 06:18:34;;;;;;;0.10;0.10;;;20.70;75.00;;;;;;5033658;28;20029;-72
2022/07/18 06:21:02;;;;;;;0.13;0.13;;;20.90;75.30;;;;;;5034141;28;20545;-72
2022/07/18 06:23:28;;;;;;;0.10;0.10;;;20.90;74.30;;;;;;5033486;28;20022;-73
2022/07/18 06:25:55;;;;;;;0.10;0.10;;;21.10;73.90;;;;;;5043515;28;20041;-73
2022/07/18 06:28:21;;;;;;;0.10;0.10;;;21.40;72.80;;;;;;5046758;28;20029;-72
2022/07/18 06:30:46;;;;;;;0.10;0.10;;;21.40;72.20;;;;;;5047303;28;20032;-72
2022/07/18 06:33:13;;;;;;;0.10;0.10;;;21.60;71.50;;;;;;5032927;28;20031;-73
2022/07/18 06:35:40;;;;;;;0.10;0.10;;;21.80;72.00;;;;;;5034231;28;20031;-72
2022/07/18 06:38:06;;;;;;;0.00;0.00;;;21.90;71.70;;;;;;5034648;28;20029;-72
2022/07/18 06:40:31;;;;;;;0.10;0.10;;;22.00;69.50;;;;;;5034006;28;20021;-72
2022/07/18 06:42:57;;;;;;;0.10;0.10;;;22.10;67.30;;;;;;5033359;28;20109;-72
2022/07/18 06:45:23;;;;;;;0.10;0.10;;;22.20;63.80;;;;;;5032588;28;20032;-72
2022/07/18 06:47:49;;;;;;;0.32;0.30;;;22.30;65.80;;;;;;5042368;28;20060;-72
2022/07/18 06:50:15;;;;;;;0.10;0.10;;;22.50;66.00;;;;;;5052308;28;20503;-73
2022/07/18 06:52:43;;;;;;;0.57;0.57;;;22.70;64.90;;;;;;5052518;28;20074;-72
2022/07/18 06:55:10;;;;;;;0.08;0.08;;;22.70;64.20;;;;;;5054438;28;20028;-72
2022/07/18 06:57:36;;;;;;;0.00;0.00;;;22.80;62.80;;;;;;5046109;28;20481;-73
2022/07/18 07:00:04;;;;;;;0.10;0.10;;;22.90;63.00;;;;;;5033500;28;20125;-73
2022/07/18 07:02:29;;;;;;;0.10;0.10;;;23.00;61.60;;;;;;5039290;28;20029;-72
2022/07/18 07:04:55;;;;;;;0.00;0.00;;;23.10;62.70;;;;;;5053898;28;20112;-72
2022/07/18 07:07:21;;;;;;;0.08;0.08;;;23.40;62.20;;;;;;5053657;28;20104;-73
2022/07/18 07:09:46;;;;;;;0.00;0.00;;;23.60;60.20;;;;;;5054205;28;20079;-73
2022/07/18 07:12:12;;;;;;;0.00;0.00;;;23.70;59.40;;;;;;5054205;28;20021;-72
2022/07/18 07:14:38;;;;;;;0.08;0.08;;;23.60;59.30;;;;;;5035772;28;20029;-73
2022/07/18 07:17:04;;;;;;;0.00;0.00;;;23.80;59.90;;;;;;5053507;28;20417;-73
2022/07/18 07:19:30;;;;;;;0.10;0.10;;;23.90;59.50;;;;;;5047892;28;20040;-73
2022/07/18 07:21:56;;;;;;;0.00;0.00;;;24.00;57.60;;;;;;5019709;28;20413;-72
2022/07/18 07:24:22;;;;;;;0.10;0.10;;;23.90;57.90;;;;;;5044435;28;20082;-72
2022/07/18 07:26:48;;;;;;;0.00;0.00;;;23.80;58.40;;;;;;5046377;28;20025;-72
2022/07/18 07:29:14;;;;;;;0.00;0.00;;;23.80;58.30;;;;;;5031683;28;20029;-72
2022/07/18 07:31:42;;;;;;;0.00;0.00;;;24.00;57.10;;;;;;5042082;28;20029;-72
2022/07/18 07:34:08;;;;;;;0.00;0.00;;;24.40;56.00;;;;;;5052148;28;20323;-73
2022/07/18 07:36:34;;;;;;;0.00;0.00;;;24.70;53.70;;;;;;5030636;28;20087;-73
2022/07/18 07:39:00;;;;;;;0.20;0.20;;;24.90;52.60;;;;;;5040900;28;20100;-72
2022/07/18 07:41:26;;;;;;;0.00;0.00;;;24.90;53.60;;;;;;5042154;28;20021;-72
2022/07/18 07:43:52;;;;;;;0.00;0.00;;;25.00;52.10;;;;;;5053064;28;20369;-72
2022/07/18 07:46:18;;;;;;;0.00;0.00;;;25.10;50.80;;;;;;5020104;28;20033;-73
2022/07/18 07:48:43;;;;;;;0.20;0.20;;;25.30;49.60;;;;;;5035330;28;20079;-73
2022/07/18 07:51:09;;;;;;;0.00;0.00;;;25.40;49.70;;;;;;5046462;28;20028;-73
2022/07/18 07:53:35;;;;;;;0.00;0.00;;;25.50;49.90;;;;;;5051646;28;20485;-73
2022/07/18 07:56:01;;;;;;;0.00;0.00;;;25.40;50.30;;;;;;5040224;28;20055;-73
2022/07/18 07:58:27;;;;;;;0.03;0.03;;;25.60;49.20;;;;;;5033593;28;20029;-73
2022/07/18 08:00:52;;;;;;;0.00;0.00;;;25.80;49.80;;;;;;5031049;28;20026;-73
2022/07/18 08:03:18;;;;;;;0.00;0.00;;;25.80;50.00;;;;;;5034291;28;20021;-72
2022/07/18 08:05:50;;;;;;;0.00;0.00;;;25.70;48.10;;;;;;5033766;28;20034;-74
2022/07/18 08:08:16;;;;;;;0.00;0.00;;;25.90;49.00;;;;;;5034286;28;20479;-79
2022/07/18 08:10:43;;;;;;;0.00;0.00;;;26.20;46.70;;;;;;5042988;28;20388;-78
2022/07/18 08:13:09;;;;;;;0.00;0.00;;;26.50;45.00;;;;;;5028304;28;20025;-77
2022/07/18 08:15:35;;;;;;;1.83;0.45;;;26.50;43.10;;;;;;5028067;28;20025;-76
2022/07/18 08:18:01;;;;;;;0.00;0.00;;;26.70;41.20;;;;;;5045257;28;20021;-76
2022/07/18 08:20:27;;;;;;;0.00;0.00;;;27.00;42.10;;;;;;5037534;28;20070;-73
2022/07/18 08:22:53;;;;;;;0.10;0.10;;;27.20;42.80;;;;;;5056779;28;20029;-72
2022/07/18 08:25:19;;;;;;;0.00;0.00;;;27.20;39.30;;;;;;5055808;28;20032;-73
2022/07/18 08:27:45;;;;;;;0.00;0.00;;;27.30;40.40;;;;;;5054460;28;20495;-72
2022/07/18 08:30:11;;;;;;;0.05;0.05;;;27.30;38.70;;;;;;5043313;28;20026;-73
2022/07/18 08:32:36;;;;;;;0.00;0.00;;;27.50;40.30;;;;;;5040936;28;20033;-77
2022/07/18 08:35:03;;;;;;;0.00;0.00;;;27.50;40.90;;;;;;5041156;28;20036;-74
2022/07/18 08:37:28;;;;;;;0.00;0.00;;;27.50;40.40;;;;;;5037804;28;20429;-74
2022/07/18 08:39:54;;;;;;;0.10;0.10;;;27.60;43.10;;;;;;5034950;28;20017;-75
2022/07/18 08:42:24;;;;;;;0.20;0.20;;;27.50;42.60;;;;;;5037287;28;20021;-72
2022/07/18 08:44:54;;;;;;;0.00;0.00;;;27.60;40.10;;;;;;5037568;28;20465;-75
2022/07/18 08:47:20;;;;;;;0.00;0.00;;;27.70;39.20;;;;;;5020105;28;20389;-75
2022/07/18 08:49:47;;;;;;;0.00;0.00;;;28.00;37.90;;;;;;5036178;28;20024;-73
2022/07/18 08:52:18;;;;;;;0.00;0.00;;;28.00;37.40;;;;;;5020257;28;20385;-73
2022/07/18 08:54:44;;;;;;;;;;;28.10;38.80;;;;;;5037628;28;20422;-72
2022/07/18 08:57:10;;;;;;;6.45;1.35;;;28.30;39.60;;;;;;5035130;28;20008;-73
2022/07/18 08:59:35;;;;;;;0.00;0.00;;;28.40;37.20;;;;;;5034932;28;20029;-73
2022/07/18 09:02:01;;;;;;;0.13;0.13;;;28.50;37.90;;;;;;5034730;28;20025;-73
2022/07/18 09:04:40;;;;;;;0.10;0.10;;;28.40;38.70;;;;;;5034918;28;20029;-73
2022/07/18 09:07:10;;;;;;;0.00;0.00;;;28.50;34.50;;;;;;5017069;28;20032;-72
2022/07/18 09:09:37;;;;;;;0.52;0.35;;;28.50;35.30;;;;;;5034212;28;20137;-73
2022/07/18 09:12:09;;;;;;;0.13;0.13;;;28.80;34.70;;;;;;5033922;28;20501;-73
2022/07/18 09:14:45;;;;;;;0.00;0.00;;;28.90;37.90;;;;;;5033511;28;20017;-73
2022/07/18 09:17:25;;;;;;;0.00;0.00;;;28.70;37.60;;;;;;5038143;28;20021;-73
2022/07/18 09:20:08;;;;;;;0.00;0.00;;;28.70;37.80;;;;;;5051582;28;20017;-73
2022/07/18 09:22:43;;;;;;;0.30;0.30;;;28.90;39.40;;;;;;5013200;28;20220;-73
2022/07/18 09:25:14;;;;;;;0.00;0.00;;;29.20;39.60;;;;;;5026324;28;20018;-73
2022/07/18 09:27:45;;;;;;;0.00;0.00;;;29.40;38.30;;;;;;5033217;28;20025;-74
2022/07/18 09:30:19;;;;;;;0.00;0.00;;;29.20;39.20;;;;;;5034185;28;20489;-73
2022/07/18 09:32:48;;;;;;;0.20;0.20;;;29.50;38.30;;;;;;5034483;28;20025;-73
2022/07/18 09:35:20;;;;;;;0.57;0.57;;;29.80;36.80;;;;;;5053575;28;20025;-73
2022/07/18 09:38:01;;;;;;;0.10;0.10;;;29.70;36.40;;;;;;5052864;28;20052;-73
2022/07/18 09:40:29;;;;;;;;;;;29.90;37.20;;;;;;5064841;28;20027;-77
2022/07/18 09:42:58;;;;;;;0.00;0.00;;;30.30;37.10;;;;;;5042458;28;19944;-77
2022/07/18 09:45:27;;;;;;;0.25;0.20;;;30.50;36.30;;;;;;5065212;28;20028;-78
2022/07/18 09:48:02;;;;;;;0.00;0.00;;;30.70;37.20;;;;;;5063901;28;20667;-78
2022/07/18 09:50:30;;;;;;;0.63;0.60;;;30.60;36.50;;;;;;5059195;28;20025;-76
2022/07/18 09:53:14;;;;;;;0.25;0.20;;;30.10;37.90;;;;;;5044083;28;20025;-78
2022/07/18 09:55:54;;;;;;;0.00;0.00;;;30.10;35.40;;;;;;5044381;28;20055;-77
2022/07/18 09:58:26;;;;;;;0.00;0.00;;;30.00;36.40;;;;;;5045437;28;20022;-77
2022/07/18 10:00:53;;;;;;;0.00;0.00;;;30.40;35.70;;;;;;5028222;28;20026;-76
2022/07/18 10:03:20;;;;;;;2.38;1.17;;;30.30;35.30;;;;;;5028265;28;20094;-78
2022/07/18 10:05:48;;;;;;;1.75;1.13;;;30.50;34.90;;;;;;5106682;22;20061;-71
2022/07/18 10:08:21;;;;;;;0.10;0.10;;;30.50;34.70;;;;;;5014299;28;20022;-71
2022/07/18 10:10:49;;;;;;;0.22;0.20;;;30.70;35.90;;;;;;5032381;28;20032;-72
2022/07/18 10:13:17;;;;;;;0.00;0.00;;;30.60;38.50;;;;;;5032647;28;20021;-73
2022/07/18 10:15:45;;;;;;;0.15;0.15;;;30.70;37.60;;;;;;5032464;28;20039;-72
2022/07/18 10:18:13;;;;;;;0.00;0.00;;;31.10;33.20;;;;;;5032526;28;20021;-73
2022/07/18 10:20:59;;;;;;;0.20;0.20;;;31.60;34.20;;;;;;5031948;28;20025;-73
2022/07/18 10:23:30;;;;;;;0.00;0.00;;;31.60;30.60;;;;;;5016595;28;20508;-73
2022/07/18 10:26:15;;;;;;;0.00;0.00;;;31.60;32.80;;;;;;5040299;28;20026;-73
2022/07/18 10:28:56;;;;;;;0.00;0.00;;;31.70;32.40;;;;;;5049272;28;20029;-73
2022/07/18 10:31:23;;;;;;;;;;;31.80;31.20;;;;;;5048454;28;20603;-73
2022/07/18 10:33:50;;;;;;;0.32;0.32;;;32.00;32.70;;;;;;5031582;28;19913;-73
2022/07/18 10:36:17;;;;;;;0.45;0.45;;;32.10;31.80;;;;;;5014273;28;20038;-73
2022/07/18 10:39:06;;;;;;;5.70;0.77;;;31.90;30.20;;;;;;5031895;28;20354;-72
2022/07/18 10:41:38;;;;;;;0.00;0.00;;;31.70;30.20;;;;;;5031922;28;20021;-73
2022/07/18 10:44:26;;;;;;;0.22;0.15;;;31.70;31.50;;;;;;5032019;28;20030;-73
2022/07/18 10:47:11;;;;;;;0.00;0.00;;;32.30;31.80;;;;;;4997893;28;20017;-72
2022/07/18 10:50:04;;;;;;;0.00;0.00;;;32.50;29.50;;;;;;5031658;28;20029;-73
2022/07/18 10:52:30;;;;;;;0.10;0.10;;;32.40;32.10;;;;;;5010135;28;20039;-72
2022/07/18 10:55:16;;;;;;;0.00;0.00;;;31.90;32.80;;;;;;5031997;28;20029;-72
2022/07/18 10:57:48;;;;;;;2.28;0.40;;;31.60;33.00;;;;;;5031661;28;20155;-73
2022/07/18 11:07:19;;;;;;;0.00;0.00;;;31.70;33.10;;;;;;5037272;28;20040;-92
2022/07/18 11:10:28;;;;;;;0.17;0.17;;;31.90;32.70;;;;;;5042851;28;20052;-91
2022/07/18 11:13:49;;;;;;;0.00;0.00;;;32.30;32.10;;;;;;5024992;28;20025;-92
2022/07/18 11:21:38;;;;;;;0.13;0.13;;;32.60;32.20;;;;;;4959727;28;20038;-92
2022/07/18 11:24:13;;;;;;;0.00;0.00;;;32.40;32.80;;;;;;5020892;23;20539;-76
2022/07/18 11:26:47;;;;;;;0.00;0.00;;;32.60;32.00;;;;;;4994412;28;20029;-77
2022/07/18 11:29:16;;;;;;;0.20;0.20;;;33.00;32.90;;;;;;5012258;28;20480;-76
2022/07/18 11:32:03;;;;;;;0.05;0.05;;;33.00;31.60;;;;;;4991562;28;20030;-77
2022/07/18 11:34:28;;;;;;;0.00;0.00;;;32.90;31.50;;;;;;5013990;28;20036;-76
2022/07/18 11:36:54;;;;;;;0.00;0.00;;;32.90;31.30;;;;;;5012799;28;20432;-76
2022/07/18 11:39:31;;;;;;;0.57;0.20;;;32.50;31.60;;;;;;5015106;28;20045;-77
2022/07/18 11:41:58;;;;;;;0.30;0.30;;;32.30;30.90;;;;;;5010051;28;20026;-75
2022/07/18 11:52:09;;;;;;;0.70;0.40;;;32.40;31.80;;;;;;5012821;28;20033;-92
2022/07/18 11:55:16;;;;;;;0.10;0.10;;;32.30;32.20;;;;;;4968775;28;20138;-93
2022/07/18 12:23:14;;;;;;;0.30;0.15;;;31.40;33.00;;;;;;5039141;28;20045;-91
2022/07/18 12:29:28;;;;;;;0.70;0.52;;;31.40;32.90;;;;;;4961333;28;20079;-91
2022/07/18 12:31:54;;;;;;;0.00;0.00;;;30.90;33.30;;;;;;4950780;28;20022;-91
2022/07/18 12:53:22;;;;;;;0.47;0.47;;;30.40;33.70;;;;;;4993994;28;20565;-91
2022/07/18 12:56:06;;;;;;;0.20;0.10;;;30.50;34.00;;;;;;4969155;28;20038;-89
2022/07/18 12:58:31;;;;;;;;;;;30.60;33.40;;;;;;5023622;28;20025;-90
2022/07/18 13:01:23;;;;;;;0.00;0.00;;;30.20;34.60;;;;;;5021849;28;19967;-90
2022/07/18 13:04:17;;;;;;;;;;;30.10;34.30;;;;;;5024735;28;20021;-90
2022/07/18 13:06:51;;;;;;;0.00;0.00;;;30.00;34.90;;;;;;5022413;28;19940;-90
2022/07/18 13:13:09;;;;;;;0.28;0.28;;;30.40;35.50;;;;;;5056891;28;20036;-89
2022/07/18 13:16:07;;;;;;;0.00;0.00;;;30.20;35.30;;;;;;5022431;28;20075;-90
2022/07/18 13:18:45;;;;;;;0.00;0.00;;;30.30;35.20;;;;;;5023265;28;20033;-91
2022/07/18 13:21:12;;;;;;;0.00;0.00;;;30.50;35.50;;;;;;5019589;28;20029;-89
2022/07/18 13:24:27;;;;;;;0.30;0.30;;;30.30;36.80;;;;;;5022163;28;20025;-90
2022/07/18 13:27:05;;;;;;;0.77;0.65;;;30.10;36.10;;;;;;5001749;28;20067;-91
2022/07/18 13:29:57;;;;;;;0.20;0.20;;;30.10;36.10;;;;;;5022259;28;20029;-90
2022/07/18 13:32:35;;;;;;;0.00;0.00;;;30.10;37.10;;;;;;5037162;28;20032;-91
2022/07/18 13:35:13;;;;;;;0.00;0.00;;;30.20;36.80;;;;;;5022450;28;20052;-89
2022/07/18 13:37:55;;;;;;;;;;;;;;;;;;;;;
2022/07/18 13:40:31;;;;;;;0.00;0.00;;;30.20;35.40;;;;;;5041318;28;20032;-90
2022/07/18 13:46:21;;;;;;;0.22;0.20;;;30.20;38.00;;;;;;5007041;28;20034;-90
2022/07/18 13:48:58;;;;;;;0.00;0.00;;;30.20;37.20;;;;;;5007422;28;20083;-89
2022/07/18 13:51:37;;;;;;;0.10;0.10;;;30.10;37.20;;;;;;5003563;28;20029;-91
2022/07/18 13:54:26;;;;;;;;;;;29.90;37.20;;;;;;5001426;28;20371;-89
2022/07/18 13:57:31;;;;;;;0.00;0.00;;;29.90;37.20;;;;;;5030899;28;19940;-89
2022/07/18 14:00:21;;;;;;;0.00;0.00;;;29.90;37.00;;;;;;5013977;28;20389;-90
2022/07/18 14:02:51;;;;;;;0.28;0.13;;;29.60;37.60;;;;;;5002275;28;20057;-91
2022/07/18 14:23:57;;;;;;;0.00;0.00;;;29.90;38.30;;;;;;5128734;22;20049;-95
2022/07/18 14:26:48;;;;;;;0.00;0.00;;;29.90;38.60;;;;;;5038570;28;20524;-93
2022/07/18 14:29:36;;;;;;;0.05;0.00;;;29.90;38.50;;;;;;5021869;28;20440;-93
2022/07/18 14:32:08;;;;;;;0.10;0.10;;;29.70;38.90;;;;;;5022157;28;20043;-93
2022/07/18 14:35:12;;;;;;;0.00;0.00;;;29.90;40.10;;;;;;5020308;28;20485;-93
2022/07/18 14:38:43;;;;;;;0.00;0.00;;;30.00;38.40;;;;;;4960488;28;20420;-93